Aérodrome :
LOGIN :

S'inscrire | Disclaimer

   EN    FR    IT 

 










Légende :    VFR   VFR Marginal   IFR   IFR Intensif   IFR Très Intensif
Visi : 
Plafond : 
>= 8 km
>= 3000ft
5 à 8 km
1000 à 3000 ft
1500m à 5 km
500 à 1000 ft
800 à 1500m
200 à 500 ft
< 800m
< 200 ft
Symboles :   Orages  Brouillard  Fortes neiges  Fortes précipitations  Vent > 20 kt
SIGMETs :   Divers  Orages  Givrage  Turbulence  Onde Orograph.  Cendres Volcan.







- Altitude de l'aérodrome : 538 ft
- Code IATA : TNF
- Voir les cartes d'approche


LFPN - Toussus Le Noble

DERNIER METAR :
  • 241200Z AUTO 34005KT 9999 SCT009 SCT041 BKN180 10/08 Q1012 NOSIG

METARs EXPIRÉS :
  • 241130Z AUTO 33005KT 9999 SCT008 SCT039 BKN047 10/08 Q1012 NOSIG
  • 241100Z AUTO 32004KT 9999 OVC041 10/08 Q1012 NOSIG
  • 241030Z AUTO 32004KT 9999 FEW007 OVC041 09/08 Q1012 NOSIG
  • 241000Z AUTO 31005KT 9999 OVC007 09/08 Q1012 TEMPO 3000 BR BECMG BKN025
  • 240930Z AUTO 34004KT 9000 OVC006 09/08 Q1011 TEMPO 3000 BR BECMG BKN025

TAF TAF LFPN
Valide du 24 à 12h jusqu'au 24 à 21h UTC


241100Z 2412/2421 26005KT 9999 BKN030
BECMG 2412/2414 22005KT
ATIS : +33 1 39 56 54 70
Pas de NOTAMs connus pour ce terrain.



MET'MAP, la Météo Aéronautique d'un coup d'oeil ! - Copyright ORBIFLY Décembre 2007 - Disclaimer

ORBIFLY MET'MAP TEAM :

Programmation & Développement : Alexandra Zaïnal
Conception & Développement : Baudouin d'Aumeries
Co-Programmation & Développement : Marc-Olivier Méhu
Soutien technique & logistique : Manuel Goepfert

Contact : metmap@orbifly.com




SOURCES & CREDITS :

   NOAA